首页
METAR-TAF:

METAR-TAF

机场 :

普林斯顿, 不列颠哥伦比亚, 加拿大

纬度: 49-28N, 经度: 120-31W, 海拔: 700米

当前天气观测

该预报发布于10小时和34分钟前的01:00 UTC
静风
温度 0°C
湿度 100%
气压 1008 hPa
能見度: 0.8公里
冻雾

METAR: CYDC 180100Z 00000KT 1/2SM FZFG VV001 M00/M00 A2976 RMK FG8 LAST STFD OB/NEXT 18 1500UTC SLP101

时间: 03:34 (11:34 UTC)


TAF: 丢失

超过4000个机场的气象观测和天气预报(METAR&TAF报告)。

可查询的气象台以黄色和红色小点在地图上表示。

将鼠标移到小点上方,可查看气象台名称。

然后点击查看天气观测和预报。

如需切换地图:点击带黑十字的绿色按钮放大地图;点击带横线的绿色按钮缩小地图;或者点击绿色箭头查看邻近地区的地图。


METAR-TAF: